createdAt,value
2023-01-26T00:01:14.186Z,5.93
2023-01-26T00:03:41.030Z,6.50
2023-01-26T00:06:09.901Z,6.53
2023-01-26T00:08:38.173Z,6.53
2023-01-26T00:11:06.809Z,6.27
2023-01-26T00:13:34.227Z,5.43
2023-01-26T00:16:01.664Z,7.50
2023-01-26T00:18:29.517Z,7.03
2023-01-26T00:21:00.547Z,5.90
2023-01-26T00:23:29.602Z,6.60
2023-01-26T00:25:56.657Z,6.33
2023-01-26T00:28:23.524Z,6.50
2023-01-26T00:30:50.340Z,6.47
2023-01-26T00:33:17.329Z,5.40
2023-01-26T00:35:44.644Z,6.27
2023-01-26T00:38:14.725Z,5.83
2023-01-26T00:40:41.434Z,7.67
2023-01-26T00:43:08.109Z,5.30
2023-01-26T00:45:36.114Z,6.27
2023-01-26T00:48:02.855Z,5.90
2023-01-26T00:50:29.671Z,6.27
2023-01-26T00:52:56.355Z,6.03
2023-01-26T00:55:23.140Z,6.00
2023-01-26T00:57:50.151Z,6.20
2023-01-26T01:00:17.575Z,5.63
2023-01-26T01:02:44.675Z,5.97
2023-01-26T01:05:11.994Z,5.47
2023-01-26T01:07:38.714Z,5.60
2023-01-26T01:10:05.662Z,8.13
2023-01-26T01:12:32.434Z,5.43
2023-01-26T01:14:59.204Z,6.40
2023-01-26T01:17:25.926Z,5.73
2023-01-26T01:19:52.619Z,5.80
2023-01-26T01:22:19.371Z,5.60
2023-01-26T01:24:46.051Z,6.00
2023-01-26T01:27:12.743Z,5.20
2023-01-26T01:29:39.570Z,5.37
2023-01-26T01:32:06.310Z,5.37
2023-01-26T01:34:33.005Z,5.33
2023-01-26T01:36:59.662Z,5.77
2023-01-26T01:39:26.344Z,5.67
2023-01-26T01:41:53.069Z,5.20
2023-01-26T01:44:22.453Z,5.50
2023-01-26T01:46:57.142Z,5.17
2023-01-26T01:49:30.443Z,5.50
2023-01-26T01:52:10.909Z,4.63
2023-01-26T01:54:42.927Z,4.60
2023-01-26T01:57:15.793Z,5.97
2023-01-26T01:59:51.859Z,4.90
2023-01-26T02:02:18.808Z,4.60
2023-01-26T02:04:46.056Z,5.70
2023-01-26T02:07:13.585Z,5.03
2023-01-26T02:10:00.576Z,4.67
2023-01-26T02:12:30.871Z,5.10
2023-01-26T02:14:58.602Z,5.13
2023-01-26T02:17:25.380Z,5.07
2023-01-26T02:20:01.243Z,5.70
2023-01-26T02:22:49.477Z,5.13
2023-01-26T02:25:25.507Z,4.63
2023-01-26T02:27:52.259Z,5.30
2023-01-26T02:30:19.347Z,5.53
2023-01-26T02:32:46.741Z,5.67
2023-01-26T02:35:13.420Z,4.70
2023-01-26T02:37:40.116Z,4.13
2023-01-26T02:40:18.635Z,3.60
2023-01-26T02:42:45.422Z,4.20
2023-01-26T02:45:15.434Z,5.10
2023-01-26T02:47:42.269Z,4.80
2023-01-26T02:50:10.220Z,4.30
2023-01-26T02:52:38.551Z,4.13
2023-01-26T02:55:24.645Z,3.80
2023-01-26T02:57:54.096Z,5.00
2023-01-26T03:00:24.088Z,4.70
2023-01-26T03:02:54.121Z,3.83
2023-01-26T03:05:20.970Z,4.17
2023-01-26T03:07:47.756Z,4.17
2023-01-26T03:10:16.533Z,4.17
2023-01-26T03:12:43.219Z,4.43
2023-01-26T03:15:28.806Z,4.10
2023-01-26T03:18:25.467Z,3.80
2023-01-26T03:21:11.041Z,4.53
2023-01-26T03:23:56.581Z,4.27
2023-01-26T03:26:41.884Z,4.07
2023-01-26T03:29:08.680Z,4.10
2023-01-26T03:31:35.452Z,4.10
2023-01-26T03:34:02.157Z,3.97
2023-01-26T03:36:28.827Z,4.07
2023-01-26T03:38:55.486Z,4.27
2023-01-26T03:41:40.991Z,4.17
2023-01-26T03:44:26.286Z,4.27
2023-01-26T03:47:11.936Z,3.70
2023-01-26T03:49:57.428Z,4.30
2023-01-26T03:52:42.745Z,3.67
2023-01-26T03:55:28.230Z,4.23
2023-01-26T03:57:54.970Z,3.83
2023-01-26T04:00:21.691Z,3.63
2023-01-26T04:03:07.102Z,4.20
2023-01-26T04:05:52.562Z,3.43
2023-01-26T04:08:27.027Z,3.60
2023-01-26T04:10:55.200Z,4.60
2023-01-26T04:13:42.525Z,3.83
2023-01-26T04:16:29.048Z,4.00
2023-01-26T04:19:14.650Z,4.70
2023-01-26T04:21:41.492Z,10.17
2023-01-26T04:24:09.800Z,4.10
2023-01-26T04:26:37.314Z,5.10
2023-01-26T04:29:06.814Z,3.73
2023-01-26T04:31:34.354Z,3.67
2023-01-26T04:34:02.012Z,3.60
2023-01-26T04:36:28.806Z,4.03
2023-01-26T04:38:55.825Z,4.17
2023-01-26T04:41:23.092Z,4.00
2023-01-26T04:43:50.262Z,4.13
2023-01-26T04:46:17.095Z,4.23
2023-01-26T04:48:43.831Z,4.00
2023-01-26T04:51:14.331Z,3.67
2023-01-26T04:53:41.297Z,4.30
2023-01-26T04:56:14.556Z,3.83
2023-01-26T04:58:41.220Z,4.10
2023-01-26T05:01:09.086Z,4.23
2023-01-26T05:03:35.837Z,4.60
2023-01-26T05:06:02.514Z,3.63
2023-01-26T05:08:29.235Z,4.37
2023-01-26T05:10:55.921Z,4.30
2023-01-26T05:13:22.597Z,4.30
2023-01-26T05:15:49.320Z,4.33
2023-01-26T05:18:15.994Z,4.07
2023-01-26T05:20:42.674Z,4.50
2023-01-26T05:23:09.358Z,4.97
2023-01-26T05:25:36.107Z,4.30
2023-01-26T05:28:02.782Z,4.63
2023-01-26T05:30:29.663Z,4.57
2023-01-26T05:33:04.775Z,4.43
2023-01-26T05:35:31.654Z,4.80
2023-01-26T05:37:58.438Z,4.37
2023-01-26T05:40:26.136Z,4.40
2023-01-26T05:42:54.100Z,5.00
2023-01-26T05:45:21.347Z,4.10
2023-01-26T05:47:51.385Z,4.60
2023-01-26T05:50:18.181Z,4.50
2023-01-26T05:52:48.177Z,3.93
2023-01-26T05:55:15.027Z,4.20
2023-01-26T05:57:41.949Z,4.83
2023-01-26T06:00:10.108Z,4.83
2023-01-26T06:02:36.998Z,4.50
2023-01-26T06:05:04.212Z,4.47
2023-01-26T06:07:31.283Z,5.10
2023-01-26T06:09:58.035Z,4.77
2023-01-26T06:12:24.720Z,4.70
2023-01-26T06:14:51.439Z,4.20
2023-01-26T06:17:18.871Z,5.20
2023-01-26T06:19:45.711Z,5.23
2023-01-26T06:22:14.018Z,4.57
2023-01-26T06:24:40.707Z,5.37
2023-01-26T06:27:11.829Z,5.70
2023-01-26T06:29:38.530Z,4.60
2023-01-26T06:32:05.687Z,4.53
2023-01-26T06:34:33.644Z,5.00
2023-01-26T06:37:00.405Z,4.90
2023-01-26T06:39:27.103Z,5.63
2023-01-26T06:41:53.794Z,7.77
2023-01-26T06:44:20.501Z,8.50
2023-01-26T06:46:47.510Z,9.30
2023-01-26T06:49:16.616Z,11.37
2023-01-26T06:51:46.323Z,11.97
2023-01-26T06:54:14.411Z,11.90
2023-01-26T06:56:41.236Z,10.77
2023-01-26T06:59:09.809Z,13.23
2023-01-26T07:01:43.243Z,10.60
2023-01-26T07:04:10.572Z,10.60
2023-01-26T07:06:37.711Z,13.13
2023-01-26T07:09:04.824Z,13.20
2023-01-26T07:11:32.689Z,11.47
2023-01-26T07:13:59.807Z,13.63
2023-01-26T07:16:26.683Z,14.00
2023-01-26T07:18:57.279Z,16.20
2023-01-26T07:21:24.172Z,17.10
2023-01-26T07:23:52.244Z,17.03
2023-01-26T07:26:20.075Z,16.70
2023-01-26T07:28:47.009Z,15.87
2023-01-26T07:31:14.123Z,15.40
2023-01-26T07:33:40.936Z,15.70
2023-01-26T07:36:07.921Z,16.63
2023-01-26T07:38:34.674Z,18.37
2023-01-26T07:41:06.356Z,16.23
2023-01-26T07:43:34.713Z,17.33
2023-01-26T07:46:01.572Z,16.50
2023-01-26T07:48:29.878Z,19.57
2023-01-26T07:51:01.065Z,17.23
2023-01-26T07:53:30.037Z,18.77
2023-01-26T07:56:14.713Z,19.47
2023-01-26T07:58:41.879Z,17.40
2023-01-26T08:01:14.036Z,16.67
2023-01-26T08:03:41.587Z,17.33
2023-01-26T08:06:11.940Z,18.63
2023-01-26T08:08:41.940Z,15.43
2023-01-26T08:11:10.206Z,18.83
2023-01-26T08:13:37.507Z,17.33
2023-01-26T08:16:09.257Z,17.80
2023-01-26T08:18:36.088Z,18.10
2023-01-26T08:21:02.839Z,16.93
2023-01-26T08:23:29.617Z,14.43
2023-01-26T08:26:01.439Z,15.20
2023-01-26T08:28:28.565Z,17.57
2023-01-26T08:30:56.055Z,15.10
2023-01-26T08:33:23.894Z,19.37
2023-01-26T08:35:50.631Z,14.63
2023-01-26T08:38:17.322Z,17.83
2023-01-26T08:40:43.998Z,15.23
2023-01-26T08:43:10.701Z,15.83
2023-01-26T08:45:37.466Z,13.83
2023-01-26T08:48:04.870Z,17.10
2023-01-26T08:50:31.576Z,15.60
2023-01-26T08:52:58.326Z,16.70
2023-01-26T08:55:25.091Z,16.43
2023-01-26T08:57:55.387Z,12.97
2023-01-26T09:00:23.802Z,18.23
2023-01-26T09:02:51.623Z,13.13
2023-01-26T09:05:18.416Z,16.23
2023-01-26T09:07:45.130Z,11.77
2023-01-26T09:10:12.524Z,12.43
2023-01-26T09:12:41.041Z,13.37
2023-01-26T09:15:09.111Z,17.77
2023-01-26T09:17:35.975Z,15.30
2023-01-26T09:20:03.726Z,11.77
2023-01-26T09:22:30.749Z,11.83
2023-01-26T09:24:57.638Z,11.53
2023-01-26T09:27:24.436Z,10.77
2023-01-26T09:29:51.246Z,18.87
2023-01-26T09:32:18.245Z,19.13
2023-01-26T09:34:46.092Z,19.37
2023-01-26T09:37:13.108Z,18.97
2023-01-26T09:39:39.914Z,20.53
2023-01-26T09:42:12.645Z,20.50
2023-01-26T09:45:06.837Z,19.63
2023-01-26T09:47:52.178Z,26.37
2023-01-26T09:50:32.935Z,21.87
2023-01-26T09:53:12.801Z,21.70
2023-01-26T09:55:41.284Z,24.97
2023-01-26T09:58:26.710Z,26.10
2023-01-26T10:00:58.972Z,25.43
2023-01-26T10:03:49.368Z,24.00
2023-01-26T10:06:29.515Z,25.47
2023-01-26T10:09:00.591Z,20.77
2023-01-26T10:11:39.297Z,19.30
2023-01-26T10:14:18.915Z,13.17
2023-01-26T10:16:48.712Z,12.77
2023-01-26T10:19:40.644Z,11.70
2023-01-26T10:22:18.053Z,13.40
2023-01-26T10:24:48.984Z,12.50
2023-01-26T10:27:15.812Z,10.70
2023-01-26T10:29:42.597Z,15.13
2023-01-26T10:32:14.231Z,11.67
2023-01-26T10:34:41.201Z,13.23
2023-01-26T10:37:43.175Z,11.23
2023-01-26T10:40:10.999Z,13.50
2023-01-26T10:42:39.055Z,11.90
2023-01-26T10:45:24.606Z,12.63
2023-01-26T10:48:16.098Z,12.10
2023-01-26T10:50:42.911Z,12.67
2023-01-26T10:53:19.155Z,12.97
2023-01-26T10:56:15.934Z,11.70
2023-01-26T10:58:52.760Z,12.00
2023-01-26T11:01:23.213Z,13.17
2023-01-26T11:03:58.816Z,13.93
2023-01-26T11:06:29.480Z,12.20
2023-01-26T11:09:17.047Z,16.93
2023-01-26T11:11:58.533Z,11.73
2023-01-26T11:14:25.313Z,12.60
2023-01-26T11:17:01.456Z,12.07
2023-01-26T11:19:38.167Z,11.50
2023-01-26T11:22:13.279Z,12.97
2023-01-26T11:24:48.557Z,11.60
2023-01-26T11:27:22.009Z,11.23
2023-01-26T11:30:26.173Z,13.80
2023-01-26T11:33:12.281Z,15.40
2023-01-26T11:36:09.288Z,11.40
2023-01-26T11:38:45.609Z,12.13
2023-01-26T11:41:27.269Z,10.10
2023-01-26T11:44:17.971Z,10.43
2023-01-26T11:47:09.904Z,14.10
2023-01-26T11:49:45.101Z,13.60
2023-01-26T11:52:32.786Z,12.23
2023-01-26T11:55:30.481Z,15.63
2023-01-26T11:58:06.357Z,11.30
2023-01-26T12:00:44.035Z,11.23
2023-01-26T12:03:25.849Z,11.33
2023-01-26T12:05:57.426Z,14.00
2023-01-26T12:08:38.398Z,14.20
2023-01-26T12:11:28.105Z,14.70
2023-01-26T12:14:06.763Z,14.50
2023-01-26T12:16:38.237Z,12.47
2023-01-26T12:19:11.533Z,14.70
2023-01-26T12:21:43.903Z,11.97
2023-01-26T12:25:00.976Z,18.23
2023-01-26T12:27:30.924Z,12.43
2023-01-26T12:30:45.659Z,10.93
2023-01-26T12:33:12.706Z,12.00
2023-01-26T12:35:50.508Z,11.53
2023-01-26T12:38:27.068Z,15.20
2023-01-26T12:41:01.714Z,15.60
2023-01-26T12:43:38.319Z,15.90
2023-01-26T12:46:07.945Z,13.90
2023-01-26T12:48:45.121Z,14.90
2023-01-26T12:51:20.205Z,17.00
2023-01-26T12:53:56.663Z,17.10
2023-01-26T12:56:36.233Z,15.17
2023-01-26T12:59:28.355Z,16.43
2023-01-26T13:02:34.201Z,15.90
2023-01-26T13:05:02.620Z,16.70
2023-01-26T13:07:30.904Z,16.63
2023-01-26T13:10:15.072Z,15.00
2023-01-26T13:13:14.083Z,15.20
2023-01-26T13:15:40.839Z,14.53
2023-01-26T13:18:17.061Z,15.57
2023-01-26T13:20:48.526Z,14.90
2023-01-26T13:23:46.387Z,14.73
2023-01-26T13:26:44.360Z,13.80
2023-01-26T13:29:27.191Z,13.90
2023-01-26T13:31:58.718Z,14.50
2023-01-26T13:34:39.226Z,13.70
2023-01-26T13:37:30.916Z,14.70
2023-01-26T13:40:01.829Z,13.43
2023-01-26T13:42:38.131Z,14.37
2023-01-26T13:45:33.401Z,13.63
2023-01-26T13:48:03.371Z,13.00
2023-01-26T13:50:39.256Z,14.40
2023-01-26T13:53:36.432Z,13.27
2023-01-26T13:56:06.372Z,14.80
2023-01-26T13:58:34.049Z,14.40
2023-01-26T14:01:11.338Z,19.10
2023-01-26T14:03:38.021Z,15.20
2023-01-26T14:06:11.804Z,14.70
2023-01-26T14:08:39.635Z,14.57
2023-01-26T14:11:17.825Z,14.10
2023-01-26T14:13:50.223Z,13.50
2023-01-26T14:16:34.936Z,13.37
2023-01-26T14:19:17.085Z,13.70
2023-01-26T14:21:55.183Z,13.13
2023-01-26T14:24:41.261Z,13.77
2023-01-26T14:27:41.755Z,13.97
2023-01-26T14:30:29.836Z,13.40
2023-01-26T14:33:03.266Z,15.27
2023-01-26T14:35:30.375Z,14.83
2023-01-26T14:38:12.900Z,15.70
2023-01-26T14:40:51.881Z,15.63
2023-01-26T14:43:19.537Z,14.83
2023-01-26T14:46:07.913Z,14.67
2023-01-26T14:48:43.613Z,14.27
2023-01-26T14:51:21.789Z,13.97
2023-01-26T14:53:58.552Z,13.97
2023-01-26T14:56:47.477Z,13.43
2023-01-26T14:59:22.247Z,13.13
2023-01-26T15:01:49.134Z,14.00
2023-01-26T15:04:38.001Z,14.17
2023-01-26T15:07:23.573Z,14.53
2023-01-26T15:09:54.578Z,13.80
2023-01-26T15:12:21.707Z,15.23
2023-01-26T15:14:57.155Z,14.83
2023-01-26T15:17:38.114Z,14.97
2023-01-26T15:20:23.131Z,16.77
2023-01-26T15:22:52.051Z,17.47
2023-01-26T15:25:23.447Z,16.97
2023-01-26T15:27:52.269Z,16.23
2023-01-26T15:30:25.994Z,16.43
2023-01-26T15:32:53.222Z,15.97
2023-01-26T15:35:24.320Z,15.63
2023-01-26T15:38:04.673Z,16.00
2023-01-26T15:40:32.189Z,15.63
2023-01-26T15:43:12.798Z,19.07
2023-01-26T15:45:50.123Z,16.77
2023-01-26T15:48:17.310Z,17.73
2023-01-26T15:50:44.112Z,17.47
2023-01-26T15:53:15.446Z,17.33
2023-01-26T15:55:44.091Z,16.67
2023-01-26T15:58:10.814Z,16.47
2023-01-26T16:00:38.706Z,16.70
2023-01-26T16:03:12.481Z,17.37
2023-01-26T16:05:39.174Z,16.10
2023-01-26T16:08:05.925Z,16.90
2023-01-26T16:10:32.971Z,16.37
2023-01-26T16:12:59.627Z,15.83
2023-01-26T16:15:48.676Z,15.50
2023-01-26T16:18:15.845Z,16.50
2023-01-26T16:20:44.558Z,15.40
2023-01-26T16:23:20.504Z,15.83
2023-01-26T16:25:47.754Z,15.07
2023-01-26T16:28:14.791Z,15.07
2023-01-26T16:30:46.535Z,15.03
2023-01-26T16:33:15.904Z,14.53
2023-01-26T16:35:43.180Z,16.10
2023-01-26T16:38:13.176Z,15.57
2023-01-26T16:40:44.919Z,15.33
2023-01-26T16:43:24.499Z,14.93
2023-01-26T16:45:52.506Z,15.63
2023-01-26T16:48:20.561Z,15.93
2023-01-26T16:50:51.524Z,14.47
2023-01-26T16:53:30.474Z,13.63
2023-01-26T16:55:57.290Z,14.57
2023-01-26T16:58:26.583Z,13.80
2023-01-26T17:00:55.311Z,13.53
2023-01-26T17:03:22.678Z,13.40
2023-01-26T17:05:50.593Z,13.93
2023-01-26T17:08:17.635Z,13.83
2023-01-26T17:10:59.841Z,12.67
2023-01-26T17:13:28.868Z,11.87
2023-01-26T17:15:57.106Z,13.43
2023-01-26T17:18:24.382Z,13.60
2023-01-26T17:20:51.168Z,11.77
2023-01-26T17:23:17.957Z,10.87
2023-01-26T17:25:44.684Z,10.90
2023-01-26T17:28:11.435Z,10.60
2023-01-26T17:30:38.120Z,10.23
2023-01-26T17:33:04.844Z,10.70
2023-01-26T17:35:31.553Z,13.27
2023-01-26T17:37:58.232Z,12.90
2023-01-26T17:40:24.915Z,10.63
2023-01-26T17:42:51.722Z,10.43
2023-01-26T17:45:18.377Z,11.30
2023-01-26T17:47:45.238Z,11.53
2023-01-26T17:50:12.000Z,10.37
2023-01-26T17:52:38.681Z,10.53
2023-01-26T17:55:06.339Z,11.03
2023-01-26T17:57:33.877Z,11.87
2023-01-26T18:00:00.691Z,11.90
2023-01-26T18:02:27.405Z,11.07
2023-01-26T18:04:54.151Z,11.77
2023-01-26T18:07:20.874Z,11.70
2023-01-26T18:09:47.620Z,13.20
2023-01-26T18:12:14.379Z,10.50
2023-01-26T18:14:41.398Z,10.73
2023-01-26T18:17:08.306Z,9.70
2023-01-26T18:19:35.045Z,10.53
2023-01-26T18:22:01.733Z,10.73
2023-01-26T18:24:28.451Z,11.10
2023-01-26T18:26:55.160Z,10.77
2023-01-26T18:29:21.853Z,9.63
2023-01-26T18:31:48.552Z,11.50
2023-01-26T18:34:15.375Z,9.00
2023-01-26T18:36:42.085Z,9.33
2023-01-26T18:39:12.839Z,9.00
2023-01-26T18:41:40.840Z,9.13
2023-01-26T18:44:08.231Z,9.30
2023-01-26T18:46:35.033Z,10.10
2023-01-26T18:49:03.078Z,10.17
2023-01-26T18:51:35.267Z,9.13
2023-01-26T18:54:04.154Z,10.13
2023-01-26T18:56:31.376Z,9.37
2023-01-26T18:58:58.581Z,10.00
2023-01-26T19:01:26.188Z,8.37
2023-01-26T19:03:55.923Z,8.77
2023-01-26T19:06:24.898Z,8.87
2023-01-26T19:09:00.842Z,7.87
2023-01-26T19:11:30.735Z,9.33
2023-01-26T19:13:57.991Z,8.93
2023-01-26T19:16:25.283Z,10.07
2023-01-26T19:18:52.248Z,7.43
2023-01-26T19:21:24.893Z,8.30
2023-01-26T19:23:54.248Z,7.93
2023-01-26T19:26:23.582Z,8.43
2023-01-26T19:28:51.070Z,7.67
2023-01-26T19:31:22.171Z,7.80
2023-01-26T19:33:56.144Z,7.40
2023-01-26T19:36:23.640Z,11.47
2023-01-26T19:38:50.443Z,7.30
2023-01-26T19:41:19.141Z,8.63
2023-01-26T19:43:45.828Z,6.97
2023-01-26T19:46:14.273Z,7.87
2023-01-26T19:48:41.309Z,6.67
2023-01-26T19:51:12.515Z,7.70
2023-01-26T19:53:42.303Z,6.03
2023-01-26T19:56:10.211Z,5.97
2023-01-26T19:58:37.277Z,6.63
2023-01-26T20:01:09.414Z,5.93
2023-01-26T20:03:37.195Z,6.93
2023-01-26T20:06:04.718Z,6.67
2023-01-26T20:08:31.524Z,6.47
2023-01-26T20:11:06.332Z,6.73
2023-01-26T20:13:34.551Z,7.27
2023-01-26T20:16:03.542Z,5.83
2023-01-26T20:18:30.631Z,5.53
2023-01-26T20:21:00.375Z,6.60
2023-01-26T20:23:28.010Z,8.20
2023-01-26T20:26:03.466Z,5.47
2023-01-26T20:28:30.422Z,5.80
2023-01-26T20:31:15.648Z,5.83
2023-01-26T20:33:44.656Z,4.80
2023-01-26T20:36:13.532Z,6.80
2023-01-26T20:38:40.228Z,5.10
2023-01-26T20:41:12.722Z,6.20
2023-01-26T20:43:46.517Z,5.93
2023-01-26T20:46:24.438Z,7.27
2023-01-26T20:48:51.856Z,5.10
2023-01-26T20:51:20.979Z,5.60
2023-01-26T20:53:49.047Z,5.90
2023-01-26T20:56:20.167Z,7.10
2023-01-26T20:58:47.489Z,5.63
2023-01-26T21:01:16.630Z,4.93
2023-01-26T21:03:44.392Z,5.17
2023-01-26T21:06:14.302Z,7.80
2023-01-26T21:08:41.498Z,4.10
2023-01-26T21:11:12.115Z,3.93
2023-01-26T21:13:42.505Z,4.63
2023-01-26T21:16:11.867Z,5.67
2023-01-26T21:18:39.004Z,4.67
2023-01-26T21:21:07.716Z,4.50
2023-01-26T21:23:34.922Z,5.43
2023-01-26T21:26:07.181Z,4.40
2023-01-26T21:28:34.307Z,4.70
2023-01-26T21:31:01.745Z,5.00
2023-01-26T21:33:33.264Z,5.03
2023-01-26T21:36:02.102Z,6.50
2023-01-26T21:38:33.880Z,3.80
2023-01-26T21:41:26.520Z,3.93
2023-01-26T21:44:06.040Z,4.10
2023-01-26T21:46:33.703Z,3.97
2023-01-26T21:49:01.025Z,4.23
2023-01-26T21:51:47.136Z,3.87
2023-01-26T21:54:14.084Z,4.17
2023-01-26T21:56:41.103Z,3.90
2023-01-26T21:59:10.572Z,4.40
2023-01-26T22:01:39.676Z,3.93
2023-01-26T22:04:09.242Z,4.07
2023-01-26T22:06:37.106Z,3.90
2023-01-26T22:09:08.729Z,4.13
2023-01-26T22:11:35.984Z,4.17
2023-01-26T22:14:03.051Z,4.00
2023-01-26T22:16:30.098Z,4.03
2023-01-26T22:18:56.923Z,4.20
2023-01-26T22:21:24.129Z,3.80
2023-01-26T22:23:50.932Z,3.87
2023-01-26T22:26:19.879Z,3.40
2023-01-26T22:28:51.317Z,4.03
2023-01-26T22:31:19.913Z,3.53
2023-01-26T22:33:47.469Z,3.80
2023-01-26T22:36:14.450Z,3.10
2023-01-26T22:38:41.938Z,4.23
2023-01-26T22:41:22.302Z,4.97
2023-01-26T22:43:50.889Z,3.33
2023-01-26T22:46:19.199Z,3.70
2023-01-26T22:48:45.989Z,3.43
2023-01-26T22:51:18.380Z,3.87
2023-01-26T22:53:45.571Z,2.70
2023-01-26T22:56:12.742Z,3.43
2023-01-26T22:58:51.747Z,3.53
2023-01-26T23:01:25.034Z,3.70
2023-01-26T23:03:54.107Z,4.00
2023-01-26T23:06:21.584Z,3.53
2023-01-26T23:08:49.155Z,3.20
2023-01-26T23:11:21.446Z,3.90
2023-01-26T23:13:50.250Z,2.50
2023-01-26T23:16:17.874Z,3.00
2023-01-26T23:18:44.892Z,3.80
2023-01-26T23:21:11.724Z,3.10
2023-01-26T23:23:39.827Z,3.00
2023-01-26T23:26:07.306Z,2.67
2023-01-26T23:28:38.215Z,2.97
2023-01-26T23:31:05.582Z,3.30
2023-01-26T23:33:33.838Z,3.03
2023-01-26T23:36:01.230Z,5.13
2023-01-26T23:38:29.554Z,2.73
2023-01-26T23:40:57.487Z,2.70
2023-01-26T23:43:24.649Z,2.97
2023-01-26T23:45:52.098Z,2.90
2023-01-26T23:48:19.462Z,2.90
2023-01-26T23:50:46.360Z,2.70
2023-01-26T23:53:13.395Z,2.67
2023-01-26T23:55:42.441Z,2.90
2023-01-26T23:58:10.028Z,2.93
